sensor_id;sensor_type;location;lat;lon;timestamp;temperature;humidity
12981;DHT22;6555;50.468;8.480;2023-07-02T00:03:38;20.20;57.00
12981;DHT22;6555;50.468;8.480;2023-07-02T00:09:27;20.20;56.50
12981;DHT22;6555;50.468;8.480;2023-07-02T00:14:57;20.20;57.40
12981;DHT22;6555;50.468;8.480;2023-07-02T00:20:33;20.20;57.20
12981;DHT22;6555;50.468;8.480;2023-07-02T06:30:31;18.60;57.90
12981;DHT22;6555;50.468;8.480;2023-07-02T06:36:07;18.60;57.80
12981;DHT22;6555;50.468;8.480;2023-07-02T06:41:56;18.60;57.80
12981;DHT22;6555;50.468;8.480;2023-07-02T06:47:39;18.70;57.70
12981;DHT22;6555;50.468;8.480;2023-07-02T06:52:58;18.70;57.70
12981;DHT22;6555;50.468;8.480;2023-07-02T06:58:21;18.70;57.80
12981;DHT22;6555;50.468;8.480;2023-07-02T07:04:06;18.80;57.70
12981;DHT22;6555;50.468;8.480;2023-07-02T07:09:35;18.80;57.80
12981;DHT22;6555;50.468;8.480;2023-07-02T07:14:51;18.80;57.90
12981;DHT22;6555;50.468;8.480;2023-07-02T07:20:11;18.90;58.20
12981;DHT22;6555;50.468;8.480;2023-07-02T07:25:42;19.10;58.80
12981;DHT22;6555;50.468;8.480;2023-07-02T07:31:16;19.20;58.90
12981;DHT22;6555;50.468;8.480;2023-07-02T07:36:42;19.50;58.40
12981;DHT22;6555;50.468;8.480;2023-07-02T07:42:19;19.70;58.00
12981;DHT22;6555;50.468;8.480;2023-07-02T07:47:33;19.80;57.80
12981;DHT22;6555;50.468;8.480;2023-07-02T07:52:40;19.90;57.80
12981;DHT22;6555;50.468;8.480;2023-07-02T07:57:50;19.90;57.60
12981;DHT22;6555;50.468;8.480;2023-07-02T08:02:57;20.00;57.40
12981;DHT22;6555;50.468;8.480;2023-07-02T08:08:06;20.00;57.30
12981;DHT22;6555;50.468;8.480;2023-07-02T08:13:18;20.10;57.20
12981;DHT22;6555;50.468;8.480;2023-07-02T08:18:42;20.10;57.00
12981;DHT22;6555;50.468;8.480;2023-07-02T08:23:49;20.10;57.00
12981;DHT22;6555;50.468;8.480;2023-07-02T08:29:03;20.10;57.10
12981;DHT22;6555;50.468;8.480;2023-07-02T08:34:44;20.10;57.20
12981;DHT22;6555;50.468;8.480;2023-07-02T08:45:34;20.20;57.80
12981;DHT22;6555;50.468;8.480;2023-07-02T08:50:57;20.50;58.00
12981;DHT22;6555;50.468;8.480;2023-07-02T08:56:07;20.70;57.80
12981;DHT22;6555;50.468;8.480;2023-07-02T09:01:14;20.90;57.40
12981;DHT22;6555;50.468;8.480;2023-07-02T09:06:35;21.00;57.20
12981;DHT22;6555;50.468;8.480;2023-07-02T09:12:21;21.10;57.20
12981;DHT22;6555;50.468;8.480;2023-07-02T09:17:31;21.30;56.90
12981;DHT22;6555;50.468;8.480;2023-07-02T09:23:12;21.50;57.50
12981;DHT22;6555;50.468;8.480;2023-07-02T09:28:43;21.80;57.20
12981;DHT22;6555;50.468;8.480;2023-07-02T09:34:11;22.10;57.10
12981;DHT22;6555;50.468;8.480;2023-07-02T09:39:35;22.40;56.40
12981;DHT22;6555;50.468;8.480;2023-07-02T09:45:38;22.70;56.00
12981;DHT22;6555;50.468;8.480;2023-07-02T09:51:26;22.70;55.00
12981;DHT22;6555;50.468;8.480;2023-07-02T09:57:50;22.70;54.70
12981;DHT22;6555;50.468;8.480;2023-07-02T10:03:14;22.60;54.60
12981;DHT22;6555;50.468;8.480;2023-07-02T10:09:04;22.60;55.10
12981;DHT22;6555;50.468;8.480;2023-07-02T10:14:41;22.50;55.00
12981;DHT22;6555;50.468;8.480;2023-07-02T10:20:14;22.50;54.30
12981;DHT22;6555;50.468;8.480;2023-07-02T10:26:19;22.50;54.10
12981;DHT22;6555;50.468;8.480;2023-07-02T10:31:53;22.70;54.80
12981;DHT22;6555;50.468;8.480;2023-07-02T10:37:58;22.70;54.80
12981;DHT22;6555;50.468;8.480;2023-07-02T10:43:30;22.90;54.10
12981;DHT22;6555;50.468;8.480;2023-07-02T10:49:13;23.00;54.10
12981;DHT22;6555;50.468;8.480;2023-07-02T10:54:49;23.10;53.90
12981;DHT22;6555;50.468;8.480;2023-07-02T11:00:50;23.30;53.90
12981;DHT22;6555;50.468;8.480;2023-07-02T11:06:51;23.50;53.50
12981;DHT22;6555;50.468;8.480;2023-07-02T11:12:33;23.60;53.20
12981;DHT22;6555;50.468;8.480;2023-07-02T11:18:10;23.70;52.90
12981;DHT22;6555;50.468;8.480;2023-07-02T11:30:14;23.70;52.40
12981;DHT22;6555;50.468;8.480;2023-07-02T11:42:55;23.70;52.20
12981;DHT22;6555;50.468;8.480;2023-07-02T11:54:34;23.80;51.60
12981;DHT22;6555;50.468;8.480;2023-07-02T12:06:11;24.10;51.80
12981;DHT22;6555;50.468;8.480;2023-07-02T12:18:24;24.30;50.30
12981;DHT22;6555;50.468;8.480;2023-07-02T12:24:19;24.40;49.80
12981;DHT22;6555;50.468;8.480;2023-07-02T18:34:36;25.60;42.10
12981;DHT22;6555;50.468;8.480;2023-07-02T20:24:12;23.50;44.10
12981;DHT22;6555;50.468;8.480;2023-07-02T21:05:43;22.60;44.10
12981;DHT22;6555;50.468;8.480;2023-07-02T21:11:42;22.50;44.10
12981;DHT22;6555;50.468;8.480;2023-07-02T21:18:29;22.40;44.10
12981;DHT22;6555;50.468;8.480;2023-07-02T21:24:17;22.20;44.20
12981;DHT22;6555;50.468;8.480;2023-07-02T21:42:42;22.10;44.40
12981;DHT22;6555;50.468;8.480;2023-07-02T21:54:20;22.10;44.40
12981;DHT22;6555;50.468;8.480;2023-07-02T22:00:26;22.10;44.40
12981;DHT22;6555;50.468;8.480;2023-07-02T22:06:49;22.10;44.40
12981;DHT22;6555;50.468;8.480;2023-07-02T22:12:40;22.00;44.30
12981;DHT22;6555;50.468;8.480;2023-07-02T22:18:23;22.00;44.20
12981;DHT22;6555;50.468;8.480;2023-07-02T22:24:35;22.00;44.20
12981;DHT22;6555;50.468;8.480;2023-07-02T22:30:47;21.90;44.10
12981;DHT22;6555;50.468;8.480;2023-07-02T22:42:10;21.80;44.20
12981;DHT22;6555;50.468;8.480;2023-07-02T22:53:41;21.80;44.20
12981;DHT22;6555;50.468;8.480;2023-07-02T22:59:08;21.70;44.20
12981;DHT22;6555;50.468;8.480;2023-07-02T23:04:48;21.60;44.10
12981;DHT22;6555;50.468;8.480;2023-07-02T23:10:20;21.60;44.10
12981;DHT22;6555;50.468;8.480;2023-07-02T23:27:29;21.20;44.10
12981;DHT22;6555;50.468;8.480;2023-07-02T23:32:48;21.10;44.10
12981;DHT22;6555;50.468;8.480;2023-07-02T23:38:14;21.10;44.20
12981;DHT22;6555;50.468;8.480;2023-07-02T23:43:41;20.90;44.20
12981;DHT22;6555;50.468;8.480;2023-07-02T23:55:10;20.70;44.30
